Time;durP1;ratioP1;P1;durP2;ratioP2;P2;SDS_P1;SDS_P2;PMS_P1;PMS_P2;Temp;Humidity;BMP_temperature;BMP_pressure;BME280_temperature;BME280_humidity;BME280_pressure;Samples;Min_cycle;Max_cycle;Signal;HPM_P1;HPM_P2
2023/06/28 00:00:13;;;;;;;4.43;2.47;;;20.70;59.70;;;;;;4914635;29;20186;-76
2023/06/28 00:02:39;;;;;;;3.33;2.17;;;20.70;59.60;;;;;;4922339;29;20617;-76
2023/06/28 00:05:09;;;;;;;3.20;2.37;;;20.60;59.40;;;;;;4916625;29;20261;-76
2023/06/28 00:07:35;;;;;;;2.80;2.30;;;20.70;58.70;;;;;;4920523;29;20207;-76
2023/06/28 00:10:01;;;;;;;3.28;2.30;;;20.70;59.00;;;;;;4919049;29;20193;-76
2023/06/28 00:12:32;;;;;;;4.50;2.20;;;20.80;59.00;;;;;;4928032;29;20204;-76
2023/06/28 00:14:59;;;;;;;2.40;1.98;;;21.30;58.30;;;;;;4912897;29;20485;-76
2023/06/28 00:17:28;;;;;;;2.53;2.05;;;20.80;58.30;;;;;;4915775;29;20226;-76
2023/06/28 00:19:58;;;;;;;3.70;2.50;;;20.80;57.80;;;;;;4919092;29;20277;-76
2023/06/28 00:22:29;;;;;;;2.60;2.40;;;20.90;58.30;;;;;;4916617;29;20853;-76
2023/06/28 00:24:59;;;;;;;3.00;2.28;;;21.00;57.50;;;;;;4914746;29;20202;-78
2023/06/28 00:27:25;;;;;;;5.50;1.92;;;21.00;58.10;;;;;;4915905;29;20190;-77
2023/06/28 00:29:51;;;;;;;4.97;2.42;;;20.90;57.20;;;;;;4919759;29;20265;-78
2023/06/28 00:32:17;;;;;;;2.20;1.70;;;20.80;57.30;;;;;;4922424;29;20234;-76
2023/06/28 00:34:43;;;;;;;2.23;2.03;;;20.80;57.40;;;;;;4920783;29;20681;-76
2023/06/28 00:37:09;;;;;;;5.00;2.00;;;21.00;58.00;;;;;;4919614;29;20453;-76
2023/06/28 00:39:35;;;;;;;2.77;2.30;;;21.10;57.80;;;;;;4925088;29;20488;-77
2023/06/28 00:42:01;;;;;;;2.35;2.15;;;21.20;58.10;;;;;;4917637;29;20305;-77
2023/06/28 00:44:27;;;;;;;4.43;2.33;;;21.30;57.40;;;;;;4916783;29;20650;-76
2023/06/28 00:46:54;;;;;;;2.70;2.17;;;21.30;57.40;;;;;;4918769;29;20286;-78
2023/06/28 00:49:21;;;;;;;3.53;2.57;;;21.50;57.80;;;;;;4921180;29;20553;-77
2023/06/28 00:51:47;;;;;;;4.95;2.40;;;21.50;57.60;;;;;;4916051;29;20461;-75
2023/06/28 00:54:12;;;;;;;4.23;2.90;;;21.40;57.30;;;;;;4920030;29;20190;-76
2023/06/28 00:56:39;;;;;;;3.60;2.30;;;21.50;57.30;;;;;;4918517;29;20453;-76
2023/06/28 00:59:06;;;;;;;4.15;2.83;;;21.30;57.20;;;;;;4916252;29;20242;-73
2023/06/28 01:01:32;;;;;;;3.95;2.10;;;21.30;57.40;;;;;;4921092;29;20203;-76
2023/06/28 01:04:00;;;;;;;3.00;1.90;;;21.40;57.40;;;;;;4918274;29;20213;-75
2023/06/28 01:06:31;;;;;;;2.70;2.50;;;21.30;57.60;;;;;;4919164;29;20776;-75
2023/06/28 01:08:57;;;;;;;3.00;2.00;;;21.40;57.60;;;;;;4916601;29;20210;-77
2023/06/28 01:11:24;;;;;;;2.50;2.30;;;21.50;57.70;;;;;;4925322;29;20245;-76
2023/06/28 01:13:50;;;;;;;5.30;2.50;;;21.60;57.50;;;;;;4917651;29;20492;-76
2023/06/28 01:16:16;;;;;;;4.70;2.20;;;21.50;57.20;;;;;;4922431;29;20214;-76
2023/06/28 01:18:41;;;;;;;4.33;2.50;;;21.80;57.80;;;;;;4921114;29;20462;-76
2023/06/28 01:21:09;;;;;;;4.40;2.40;;;21.50;57.30;;;;;;4923655;29;20509;-77
2023/06/28 01:23:35;;;;;;;3.60;2.33;;;21.50;57.90;;;;;;4920782;29;20228;-77
2023/06/28 01:26:02;;;;;;;2.47;2.20;;;21.50;58.50;;;;;;4919431;29;20454;-75
2023/06/28 01:28:29;;;;;;;3.78;2.47;;;21.40;58.30;;;;;;4925746;29;20837;-76
2023/06/28 01:30:56;;;;;;;5.82;2.40;;;21.40;58.30;;;;;;4921163;29;20186;-76
2023/06/28 01:33:21;;;;;;;3.08;2.75;;;21.40;58.30;;;;;;4924442;29;20205;-76
2023/06/28 01:35:47;;;;;;;3.30;2.30;;;21.40;58.40;;;;;;4918693;29;20186;-77
2023/06/28 01:38:13;;;;;;;4.13;2.97;;;21.40;58.30;;;;;;4915929;29;20689;-76
2023/06/28 01:40:40;;;;;;;3.20;2.27;;;21.40;58.60;;;;;;4918697;29;20186;-76
2023/06/28 01:43:06;;;;;;;3.13;2.40;;;21.40;58.90;;;;;;4926116;29;20477;-77
2023/06/28 01:45:36;;;;;;;2.77;2.50;;;21.30;58.80;;;;;;4918542;29;20230;-76
2023/06/28 01:48:03;;;;;;;4.65;2.72;;;21.30;59.00;;;;;;4919273;29;20449;-76
2023/06/28 01:50:31;;;;;;;3.50;2.43;;;21.30;59.30;;;;;;4920695;29;20217;-76
2023/06/28 01:52:59;;;;;;;3.80;2.75;;;21.40;59.20;;;;;;4916633;29;20470;-77
2023/06/28 01:55:25;;;;;;;3.40;2.22;;;21.40;59.20;;;;;;4915040;29;20202;-76
2023/06/28 01:57:50;;;;;;;5.03;2.83;;;21.30;60.40;;;;;;4915568;29;20224;-76
2023/06/28 02:00:16;;;;;;;3.30;2.30;;;21.50;61.50;;;;;;4924229;29;20252;-76
2023/06/28 02:02:43;;;;;;;3.33;2.20;;;21.10;61.20;;;;;;4927627;29;20225;-76
2023/06/28 02:05:08;;;;;;;4.10;2.35;;;21.00;61.40;;;;;;4918813;29;20749;-76
2023/06/28 02:07:34;;;;;;;5.23;2.50;;;20.90;62.40;;;;;;4924324;29;20183;-77
2023/06/28 02:09:59;;;;;;;3.00;2.50;;;20.90;63.50;;;;;;4919931;29;20220;-76
2023/06/28 02:12:25;;;;;;;2.57;2.37;;;20.80;64.10;;;;;;4920793;29;20304;-76
2023/06/28 02:14:52;;;;;;;4.20;2.87;;;20.80;63.50;;;;;;4922440;29;20189;-77
2023/06/28 02:17:20;;;;;;;2.42;2.08;;;20.70;63.10;;;;;;4924318;29;20950;-76
2023/06/28 02:19:50;;;;;;;3.22;2.53;;;20.90;63.20;;;;;;4922526;29;20679;-76
2023/06/28 02:22:16;;;;;;;3.03;2.80;;;20.90;63.00;;;;;;4919006;29;20209;-77
2023/06/28 02:24:43;;;;;;;3.95;2.58;;;20.80;62.90;;;;;;4921590;29;20300;-76
2023/06/28 02:27:09;;;;;;;3.10;2.30;;;20.60;63.10;;;;;;4918128;29;20181;-76
2023/06/28 02:29:35;;;;;;;2.80;2.30;;;20.50;63.90;;;;;;4922783;29;20197;-76
2023/06/28 02:32:00;;;;;;;4.70;2.80;;;20.10;64.60;;;;;;4920241;29;20237;-76
2023/06/28 02:34:26;;;;;;;3.37;2.80;;;20.20;65.90;;;;;;4924847;29;20227;-78
2023/06/28 02:36:52;;;;;;;4.97;2.60;;;19.90;66.80;;;;;;4922497;29;20307;-77
2023/06/28 02:39:18;;;;;;;3.40;2.63;;;19.90;67.60;;;;;;4918630;29;20182;-74
2023/06/28 02:41:44;;;;;;;3.00;2.63;;;19.80;68.30;;;;;;4920571;29;20209;-77
2023/06/28 02:44:09;;;;;;;4.17;2.40;;;19.70;69.10;;;;;;4915316;29;20233;-76
2023/06/28 02:46:35;;;;;;;3.43;2.70;;;19.60;69.90;;;;;;4920955;29;20198;-76
2023/06/28 02:49:00;;;;;;;3.33;2.47;;;19.40;70.80;;;;;;4917418;29;20191;-76
2023/06/28 02:51:26;;;;;;;5.20;2.77;;;19.40;71.20;;;;;;4922291;29;20206;-76
2023/06/28 02:53:52;;;;;;;3.90;2.57;;;19.40;71.90;;;;;;4923467;29;20281;-77
2023/06/28 02:56:17;;;;;;;4.20;2.90;;;19.30;72.50;;;;;;4918888;29;20205;-76
2023/06/28 02:58:43;;;;;;;4.40;3.13;;;19.20;73.00;;;;;;4918211;29;20186;-76
2023/06/28 03:01:09;;;;;;;2.77;2.50;;;19.10;73.00;;;;;;4917458;29;20190;-76
2023/06/28 03:03:35;;;;;;;3.10;2.60;;;19.10;73.70;;;;;;4918325;29;20454;-77
2023/06/28 03:06:01;;;;;;;4.43;2.85;;;19.00;73.90;;;;;;4928917;29;20587;-77
2023/06/28 03:08:27;;;;;;;8.00;3.20;;;19.00;74.40;;;;;;4920097;29;20272;-76
2023/06/28 03:10:53;;;;;;;3.53;3.23;;;18.80;74.10;;;;;;4926579;29;20441;-76
2023/06/28 03:13:18;;;;;;;4.73;2.80;;;18.90;75.00;;;;;;4917752;29;20214;-77
2023/06/28 03:15:44;;;;;;;2.90;2.70;;;18.80;74.20;;;;;;4919737;29;20194;-75
2023/06/28 03:18:09;;;;;;;3.77;2.77;;;18.80;74.30;;;;;;4917184;29;20285;-77
2023/06/28 03:20:35;;;;;;;3.40;2.53;;;18.80;74.40;;;;;;4920817;29;20186;-76
2023/06/28 03:23:02;;;;;;;3.20;2.90;;;18.80;74.40;;;;;;4919132;29;20926;-76
2023/06/28 03:25:28;;;;;;;3.05;2.80;;;18.70;74.00;;;;;;4937084;29;20210;-76
2023/06/28 03:27:54;;;;;;;3.40;3.10;;;18.80;74.00;;;;;;4921530;29;20559;-76
2023/06/28 03:30:19;;;;;;;3.17;2.87;;;18.90;73.80;;;;;;4918436;29;20230;-76
2023/06/28 03:32:45;;;;;;;3.50;2.93;;;18.90;73.40;;;;;;4916424;29;20295;-75
2023/06/28 03:35:10;;;;;;;5.30;3.03;;;18.90;73.30;;;;;;4917756;29;20186;-74
2023/06/28 03:37:36;;;;;;;3.00;2.70;;;19.20;73.80;;;;;;4920595;29;20197;-76
2023/06/28 03:40:02;;;;;;;4.10;2.63;;;19.00;73.50;;;;;;4923300;29;20660;-76
2023/06/28 03:42:28;;;;;;;3.20;2.88;;;18.90;73.60;;;;;;4918058;29;20217;-76
2023/06/28 03:44:53;;;;;;;2.60;2.40;;;18.80;74.50;;;;;;4917571;29;20221;-75
2023/06/28 03:47:21;;;;;;;3.57;2.53;;;18.70;75.80;;;;;;4917835;29;20188;-76
2023/06/28 03:49:47;;;;;;;6.03;2.83;;;18.70;76.50;;;;;;4920612;29;20211;-76
2023/06/28 03:52:13;;;;;;;4.03;2.63;;;18.60;76.90;;;;;;4920734;29;20683;-76
2023/06/28 03:54:39;;;;;;;4.30;2.57;;;18.60;77.60;;;;;;4927772;29;20751;-79
2023/06/28 03:57:05;;;;;;;4.43;2.67;;;18.60;78.50;;;;;;4913653;29;20454;-76
2023/06/28 03:59:30;;;;;;;3.47;2.70;;;18.60;78.80;;;;;;4917281;29;20285;-76
2023/06/28 04:01:56;;;;;;;4.47;3.10;;;18.60;79.40;;;;;;4919265;29;20309;-77
2023/06/28 04:04:22;;;;;;;3.50;2.60;;;18.60;80.10;;;;;;4916207;29;20209;-76
2023/06/28 04:06:47;;;;;;;4.37;2.80;;;18.40;81.50;;;;;;4917964;29;20178;-78
2023/06/28 04:09:15;;;;;;;2.90;2.60;;;18.40;82.10;;;;;;4913996;29;20757;-73
2023/06/28 04:11:41;;;;;;;3.65;3.10;;;18.60;82.40;;;;;;4915341;29;20206;-81
2023/06/28 04:14:06;;;;;;;3.70;3.23;;;18.60;82.10;;;;;;4920949;29;20197;-77
2023/06/28 04:16:32;;;;;;;3.37;3.00;;;18.60;81.80;;;;;;4918023;29;20465;-89
2023/06/28 04:18:59;;;;;;;3.10;2.80;;;18.70;82.00;;;;;;4930226;29;20694;-74
2023/06/28 04:21:25;;;;;;;2.80;2.60;;;18.50;80.60;;;;;;4923163;29;20287;-82
2023/06/28 04:23:50;;;;;;;4.27;3.60;;;19.00;81.90;;;;;;4923702;29;20223;-81
2023/06/28 04:26:16;;;;;;;3.20;2.67;;;18.70;82.00;;;;;;4925915;29;20270;-80
2023/06/28 04:28:41;;;;;;;3.13;2.70;;;18.70;82.00;;;;;;4923051;29;20192;-81
2023/06/28 04:31:07;;;;;;;3.90;2.80;;;18.80;80.90;;;;;;4925930;29;20192;-84
2023/06/28 04:33:35;;;;;;;4.17;3.43;;;18.80;81.60;;;;;;4925962;29;20185;-82
2023/06/28 04:36:01;;;;;;;3.45;3.00;;;18.80;81.60;;;;;;4918567;29;20281;-69
2023/06/28 04:38:27;;;;;;;8.07;3.70;;;18.90;81.50;;;;;;4922442;29;20525;-68
2023/06/28 04:40:53;;;;;;;3.93;3.00;;;18.90;81.30;;;;;;4917860;29;20281;-79
2023/06/28 04:43:20;;;;;;;4.33;3.30;;;19.00;81.50;;;;;;4924726;29;20805;-69
2023/06/28 04:45:46;;;;;;;3.90;3.50;;;19.10;80.00;;;;;;4918783;29;20206;-73
2023/06/28 04:48:11;;;;;;;6.03;3.60;;;19.20;80.00;;;;;;4919603;29;20610;-71
2023/06/28 04:50:37;;;;;;;3.47;2.90;;;19.20;80.60;;;;;;4918506;29;20190;-71
2023/06/28 04:53:05;;;;;;;3.53;2.70;;;19.30;80.00;;;;;;4923212;29;20932;-70
2023/06/28 04:55:34;;;;;;;3.35;2.90;;;19.40;79.80;;;;;;4921873;29;20273;-70
2023/06/28 04:58:02;;;;;;;2.83;2.58;;;19.30;79.40;;;;;;4922033;29;20189;-71
2023/06/28 05:00:32;;;;;;;2.97;2.50;;;19.30;79.40;;;;;;4919998;29;20190;-71
2023/06/28 05:02:59;;;;;;;5.88;3.80;;;19.40;79.30;;;;;;4916194;29;20244;-71
2023/06/28 05:05:25;;;;;;;3.38;2.40;;;19.50;79.30;;;;;;4919955;29;20210;-71
2023/06/28 05:07:55;;;;;;;4.60;2.63;;;19.50;78.60;;;;;;4919477;29;20649;-69
2023/06/28 05:10:22;;;;;;;3.10;2.80;;;19.50;78.70;;;;;;4920966;29;20512;-69
2023/06/28 05:12:51;;;;;;;5.05;3.25;;;19.50;78.70;;;;;;4921250;29;20726;-70
2023/06/28 05:15:18;;;;;;;4.22;3.85;;;19.10;78.70;;;;;;4921683;29;20198;-69
2023/06/28 05:17:44;;;;;;;3.05;2.75;;;19.40;79.50;;;;;;4918036;29;20264;-70
2023/06/28 05:20:10;;;;;;;3.23;2.93;;;19.30;79.80;;;;;;4917722;29;20190;-70
2023/06/28 05:22:43;;;;;;;4.65;3.30;;;19.40;80.60;;;;;;4918518;29;20210;-70
2023/06/28 05:25:08;;;;;;;6.28;3.80;;;19.50;80.40;;;;;;4918129;29;20684;-71
2023/06/28 05:27:34;;;;;;;5.90;5.27;;;19.50;80.50;;;;;;4918637;29;20193;-71
2023/06/28 05:30:00;;;;;;;4.17;3.60;;;19.50;80.00;;;;;;4919162;29;20552;-71
2023/06/28 05:32:25;;;;;;;7.67;3.87;;;19.50;79.70;;;;;;4916303;29;20811;-69
2023/06/28 05:34:51;;;;;;;3.10;2.90;;;19.40;80.10;;;;;;4922438;29;20268;-71
2023/06/28 05:37:16;;;;;;;5.90;3.50;;;19.40;80.20;;;;;;4918380;29;20655;-69
2023/06/28 05:39:42;;;;;;;3.83;2.63;;;19.30;80.90;;;;;;4922682;29;20225;-70
2023/06/28 05:42:08;;;;;;;3.20;2.80;;;19.50;80.10;;;;;;4916230;29;20210;-70
2023/06/28 05:44:33;;;;;;;5.27;3.57;;;19.60;79.80;;;;;;4923757;29;20640;-69
2023/06/28 05:46:59;;;;;;;3.23;2.90;;;19.40;79.30;;;;;;4923429;29;20267;-68
2023/06/28 05:49:24;;;;;;;4.00;2.80;;;19.90;78.70;;;;;;4915703;29;20218;-68
2023/06/28 05:51:50;;;;;;;3.90;3.07;;;20.00;78.30;;;;;;4916893;29;20205;-71
2023/06/28 05:54:16;;;;;;;4.57;2.90;;;20.10;77.70;;;;;;4917612;29;20186;-73
2023/06/28 05:56:42;;;;;;;4.40;3.20;;;20.20;76.50;;;;;;4913489;29;20273;-74
2023/06/28 05:59:08;;;;;;;3.35;3.03;;;20.40;75.40;;;;;;4922501;29;20286;-71
2023/06/28 06:01:33;;;;;;;3.93;3.50;;;20.60;75.80;;;;;;4925648;29;20261;-71
2023/06/28 06:03:59;;;;;;;3.50;2.60;;;20.60;74.10;;;;;;4915876;29;20743;-70
2023/06/28 06:06:25;;;;;;;5.63;3.43;;;20.60;75.00;;;;;;4917985;29;20273;-69
2023/06/28 06:08:50;;;;;;;7.63;3.47;;;20.70;74.10;;;;;;4919149;29;20186;-69
2023/06/28 06:11:16;;;;;;;5.57;3.10;;;20.80;73.50;;;;;;4919771;29;20197;-69
2023/06/28 06:13:42;;;;;;;4.10;2.90;;;20.90;73.20;;;;;;4916600;29;20670;-68
2023/06/28 06:16:07;;;;;;;8.60;3.47;;;21.00;71.90;;;;;;4919706;29;20184;-69
2023/06/28 06:18:36;;;;;;;9.70;3.50;;;20.90;71.40;;;;;;4927104;29;20189;-81
2023/06/28 06:21:02;;;;;;;3.78;2.72;;;20.90;71.20;;;;;;4920444;29;20178;-71
2023/06/28 06:23:27;;;;;;;3.67;3.30;;;21.10;71.50;;;;;;4916816;29;20220;-74
2023/06/28 06:25:53;;;;;;;6.63;3.00;;;20.90;70.10;;;;;;4920309;29;20198;-73
2023/06/28 06:28:19;;;;;;;2.33;2.23;;;21.40;68.90;;;;;;4917779;29;20205;-73
2023/06/28 06:30:44;;;;;;;3.70;2.90;;;21.80;67.60;;;;;;4922757;29;20205;-73
2023/06/28 06:33:10;;;;;;;2.97;2.60;;;21.90;66.70;;;;;;4918808;29;20300;-75
2023/06/28 06:35:35;;;;;;;5.77;3.50;;;22.10;65.50;;;;;;4917842;29;20193;-77
2023/06/28 06:38:01;;;;;;;4.53;3.60;;;22.20;65.60;;;;;;4926039;29;20190;-77
2023/06/28 06:40:27;;;;;;;4.10;3.10;;;22.40;65.90;;;;;;4922083;29;20671;-81
2023/06/28 06:42:52;;;;;;;4.00;2.70;;;22.30;65.90;;;;;;4920896;29;20292;-72
2023/06/28 06:45:19;;;;;;;8.70;3.70;;;22.20;65.90;;;;;;4920859;29;20225;-71
2023/06/28 06:47:45;;;;;;;3.20;2.90;;;22.20;65.80;;;;;;4919242;29;20935;-71
2023/06/28 06:50:11;;;;;;;3.30;2.37;;;22.20;65.40;;;;;;4920614;29;20452;-73
2023/06/28 06:52:38;;;;;;;6.03;3.00;;;22.30;65.30;;;;;;4917765;29;20573;-72
2023/06/28 06:55:04;;;;;;;4.10;3.10;;;22.30;65.00;;;;;;4918318;29;20442;-77
2023/06/28 06:57:30;;;;;;;4.40;2.80;;;22.40;65.10;;;;;;4915958;29;22395;-69
2023/06/28 06:59:56;;;;;;;5.87;3.03;;;22.30;64.60;;;;;;4921062;29;20468;-70
2023/06/28 07:02:21;;;;;;;12.33;3.00;;;22.40;65.40;;;;;;4919950;29;20217;-67
2023/06/28 07:04:48;;;;;;;7.27;3.17;;;22.50;64.60;;;;;;4916790;29;20305;-66
2023/06/28 07:07:13;;;;;;;2.90;2.40;;;22.60;64.20;;;;;;4919360;29;20458;-72
2023/06/28 07:09:39;;;;;;;6.03;2.37;;;22.70;63.70;;;;;;4917220;29;21297;-72
2023/06/28 07:12:05;;;;;;;2.33;2.10;;;23.00;64.20;;;;;;4918777;29;20301;-74
2023/06/28 07:14:31;;;;;;;4.33;2.87;;;23.20;63.60;;;;;;4915611;29;20189;-74
2023/06/28 07:16:56;;;;;;;2.90;2.60;;;23.30;61.20;;;;;;4917256;29;21191;-74
2023/06/28 07:19:22;;;;;;;4.30;2.60;;;23.20;59.20;;;;;;4920676;29;20189;-69
2023/06/28 07:21:51;;;;;;;3.60;3.30;;;23.20;59.40;;;;;;4919699;29;20210;-76
2023/06/28 07:24:16;;;;;;;4.27;2.53;;;23.10;58.70;;;;;;4923501;29;20209;-74
2023/06/28 07:26:42;;;;;;;2.37;2.17;;;22.80;59.00;;;;;;4925926;29;20473;-76
2023/06/28 07:29:07;;;;;;;2.70;2.20;;;22.80;58.60;;;;;;4920830;29;20228;-72
2023/06/28 07:31:33;;;;;;;2.23;2.00;;;22.80;57.80;;;;;;4918693;29;20206;-73
2023/06/28 07:34:05;;;;;;;4.87;3.40;;;22.60;57.90;;;;;;4920678;29;20300;-74
2023/06/28 07:36:32;;;;;;;2.73;2.10;;;22.50;58.40;;;;;;4917501;29;20896;-72
2023/06/28 07:38:58;;;;;;;3.97;2.47;;;22.40;58.20;;;;;;4917475;29;20525;-73
2023/06/28 07:41:23;;;;;;;2.90;2.57;;;22.40;57.00;;;;;;4918960;29;20458;-72
2023/06/28 07:43:49;;;;;;;3.13;2.10;;;22.80;57.90;;;;;;4921310;29;20962;-72
2023/06/28 07:46:16;;;;;;;4.17;2.60;;;22.50;57.90;;;;;;4922838;29;20512;-73
2023/06/28 07:48:41;;;;;;;3.70;2.27;;;22.50;58.30;;;;;;4919889;29;20683;-76
2023/06/28 07:51:07;;;;;;;3.10;2.10;;;22.30;58.80;;;;;;4917314;29;20516;-72
2023/06/28 07:53:33;;;;;;;3.03;2.27;;;22.30;58.90;;;;;;4924439;29;20213;-73
2023/06/28 07:55:59;;;;;;;4.87;2.47;;;22.30;59.10;;;;;;4912657;29;20284;-73
2023/06/28 07:58:25;;;;;;;4.10;2.47;;;20.90;58.40;;;;;;4920265;29;20190;-72
2023/06/28 08:00:51;;;;;;;5.80;2.60;;;21.90;60.30;;;;;;4923033;29;20456;-72
2023/06/28 08:03:19;;;;;;;6.27;3.23;;;22.30;60.50;;;;;;4919322;29;20212;-72
2023/06/28 08:05:45;;;;;;;4.70;3.10;;;22.30;60.20;;;;;;4916961;29;20481;-72
2023/06/28 08:08:10;;;;;;;2.77;2.50;;;22.40;59.90;;;;;;4920076;29;20870;-73
2023/06/28 08:10:36;;;;;;;2.63;2.37;;;22.50;59.80;;;;;;4919541;29;20486;-72
2023/06/28 08:13:02;;;;;;;5.67;3.10;;;22.50;59.60;;;;;;4921736;29;20209;-74
2023/06/28 08:15:28;;;;;;;5.07;2.97;;;22.60;59.40;;;;;;4923376;29;20491;-81
2023/06/28 08:17:53;;;;;;;4.33;2.83;;;22.80;59.00;;;;;;4927135;29;20206;-82
2023/06/28 08:20:22;;;;;;;4.10;2.47;;;23.00;59.00;;;;;;4927220;29;20193;-79
2023/06/28 08:22:48;;;;;;;5.27;2.57;;;23.30;58.30;;;;;;4923463;29;20264;-74
2023/06/28 08:25:13;;;;;;;4.77;3.37;;;23.50;58.20;;;;;;4927838;29;20482;-74
2023/06/28 08:27:39;;;;;;;3.20;2.23;;;23.30;57.80;;;;;;4922338;29;20185;-69
2023/06/28 08:30:05;;;;;;;3.77;2.50;;;23.50;57.10;;;;;;4919263;29;20205;-68
2023/06/28 08:32:34;;;;;;;3.47;2.40;;;23.80;56.70;;;;;;4920131;29;20213;-70
2023/06/28 08:35:00;;;;;;;4.07;2.43;;;24.00;56.40;;;;;;4919643;29;20450;-70
2023/06/28 08:37:25;;;;;;;3.13;2.50;;;24.30;56.00;;;;;;4917728;29;20460;-71
2023/06/28 08:39:51;;;;;;;3.53;3.23;;;24.60;55.70;;;;;;4920502;29;20285;-72
2023/06/28 08:42:18;;;;;;;3.23;2.80;;;24.40;55.10;;;;;;4922928;29;20218;-77
2023/06/28 08:44:48;;;;;;;3.53;2.70;;;24.40;55.20;;;;;;4921914;29;20304;-71
2023/06/28 08:47:14;;;;;;;6.53;2.63;;;24.20;55.10;;;;;;4922572;29;20445;-73
2023/06/28 08:49:40;;;;;;;4.17;2.53;;;24.20;55.50;;;;;;4921185;29;20507;-71
2023/06/28 08:52:07;;;;;;;5.10;2.77;;;24.20;55.50;;;;;;4918743;29;20237;-68
2023/06/28 08:54:33;;;;;;;4.50;2.83;;;24.30;55.10;;;;;;4921361;29;20476;-68
2023/06/28 08:57:01;;;;;;;3.43;2.73;;;24.60;55.10;;;;;;4920264;29;20454;-67
2023/06/28 08:59:27;;;;;;;2.43;2.23;;;24.70;54.20;;;;;;4921932;29;20489;-67
2023/06/28 09:02:01;;;;;;;4.13;2.97;;;24.70;53.60;;;;;;4918564;29;20533;-67
2023/06/28 09:04:27;;;;;;;4.10;2.67;;;24.20;54.00;;;;;;4917884;29;21013;-68
2023/06/28 09:06:52;;;;;;;6.07;3.00;;;24.30;54.70;;;;;;4918941;29;20536;-68
2023/06/28 09:09:19;;;;;;;3.97;3.50;;;24.10;54.50;;;;;;4921416;29;20462;-74
2023/06/28 09:11:45;;;;;;;2.53;2.33;;;23.80;55.50;;;;;;4923082;29;20209;-71
2023/06/28 09:14:12;;;;;;;2.50;2.30;;;23.90;55.50;;;;;;4918000;29;20462;-71
2023/06/28 09:16:37;;;;;;;2.93;2.53;;;24.20;55.70;;;;;;4918185;29;20458;-71
2023/06/28 09:19:03;;;;;;;4.60;2.47;;;24.60;54.90;;;;;;4918355;29;20463;-72
2023/06/28 09:21:29;;;;;;;3.40;2.80;;;25.00;53.90;;;;;;4921935;29;20218;-75
2023/06/28 09:23:55;;;;;;;4.67;2.43;;;25.50;53.20;;;;;;4920627;29;20212;-71
2023/06/28 09:26:31;;;;;;;3.80;2.40;;;25.70;52.40;;;;;;4914420;29;20487;-71
2023/06/28 09:29:05;;;;;;;5.93;2.50;;;25.20;51.60;;;;;;4926075;29;20203;-76
2023/06/28 09:31:32;;;;;;;2.67;2.47;;;25.00;52.80;;;;;;4923594;29;20562;-76
2023/06/28 09:33:57;;;;;;;3.70;2.63;;;25.50;52.30;;;;;;4916859;29;20516;-68
2023/06/28 09:36:23;;;;;;;4.73;2.60;;;25.60;51.80;;;;;;4914566;29;20462;-67
2023/06/28 09:38:49;;;;;;;6.63;3.30;;;25.80;51.60;;;;;;4918547;29;20692;-68
2023/06/28 09:41:14;;;;;;;2.83;2.60;;;26.20;51.20;;;;;;4922096;29;20205;-68
2023/06/28 09:43:41;;;;;;;4.10;3.23;;;26.30;50.50;;;;;;4920081;29;20464;-78
2023/06/28 09:46:17;;;;;;;2.90;2.53;;;26.30;50.60;;;;;;4920427;29;20192;-78
2023/06/28 09:48:44;;;;;;;3.23;2.33;;;26.20;50.80;;;;;;4917261;29;20510;-76
2023/06/28 09:51:11;;;;;;;4.37;2.60;;;26.70;49.50;;;;;;4916549;29;20449;-67
2023/06/28 09:53:52;;;;;;;4.73;3.47;;;26.70;50.00;;;;;;4921564;29;20468;-68
2023/06/28 09:56:21;;;;;;;2.80;2.50;;;26.90;49.90;;;;;;4922210;29;20465;-67
2023/06/28 09:58:48;;;;;;;5.47;2.37;;;27.00;49.40;;;;;;4918275;29;20545;-67
2023/06/28 10:01:15;;;;;;;3.87;2.70;;;26.80;49.00;;;;;;4918574;29;20457;-67
2023/06/28 10:03:44;;;;;;;2.60;2.40;;;26.90;49.60;;;;;;4918274;29;20454;-67
2023/06/28 10:06:10;;;;;;;3.40;2.50;;;27.50;49.00;;;;;;4918243;29;20480;-68
2023/06/28 10:08:37;;;;;;;3.23;2.30;;;28.60;47.60;;;;;;4925992;29;20446;-76
2023/06/28 10:11:11;;;;;;;4.07;2.60;;;29.40;46.10;;;;;;4919116;29;20448;-77
2023/06/28 10:13:44;;;;;;;3.43;2.17;;;30.80;44.10;;;;;;4915921;29;20454;-75
2023/06/28 10:16:16;;;;;;;2.93;2.70;;;30.50;42.60;;;;;;4917746;29;20457;-76
2023/06/28 10:18:43;;;;;;;3.83;3.10;;;30.10;44.00;;;;;;4918246;29;20520;-75
2023/06/28 10:21:09;;;;;;;7.67;2.93;;;31.10;43.10;;;;;;4918052;29;20466;-76
2023/06/28 10:23:35;;;;;;;4.27;3.00;;;31.70;41.10;;;;;;4922430;29;20573;-75
2023/06/28 10:26:03;;;;;;;4.70;2.20;;;31.40;41.90;;;;;;4919890;29;20473;-74
2023/06/28 10:28:31;;;;;;;4.03;2.70;;;32.40;40.50;;;;;;4919297;29;20441;-75
2023/06/28 10:30:58;;;;;;;2.83;2.60;;;33.30;39.50;;;;;;4923331;29;20450;-74
2023/06/28 10:33:31;;;;;;;3.57;2.93;;;33.80;37.80;;;;;;4918368;29;20474;-74
2023/06/28 10:36:00;;;;;;;3.03;2.83;;;33.90;37.50;;;;;;4919900;29;20478;-75
2023/06/28 10:38:43;;;;;;;2.70;2.50;;;33.90;36.50;;;;;;4918641;29;20801;-75
2023/06/28 10:41:09;;;;;;;4.90;2.70;;;35.20;36.00;;;;;;4916507;29;21011;-69
2023/06/28 10:43:34;;;;;;;2.73;2.27;;;35.20;34.60;;;;;;4916056;29;20445;-71
2023/06/28 10:46:00;;;;;;;2.30;2.10;;;35.70;34.30;;;;;;4915803;29;20832;-71
2023/06/28 10:48:27;;;;;;;3.70;3.07;;;35.80;33.60;;;;;;4916398;29;20663;-71
2023/06/28 10:50:57;;;;;;;4.03;2.80;;;34.50;34.20;;;;;;4918849;29;20321;-71
2023/06/28 10:53:28;;;;;;;5.53;2.30;;;34.70;35.20;;;;;;4915567;29;20474;-72
2023/06/28 10:56:13;;;;;;;3.90;2.47;;;34.90;34.80;;;;;;4922096;29;20459;-72
2023/06/28 10:58:44;;;;;;;4.23;2.47;;;35.20;34.10;;;;;;4916415;29;21005;-72
2023/06/28 11:01:30;;;;;;;3.10;2.40;;;33.60;35.10;;;;;;4919948;29;20458;-71
2023/06/28 11:04:18;;;;;;;4.57;2.70;;;33.50;35.60;;;;;;4914494;29;20449;-72
2023/06/28 11:06:44;;;;;;;3.13;2.83;;;32.50;36.80;;;;;;4922401;29;20477;-71
2023/06/28 11:09:15;;;;;;;6.97;2.67;;;32.10;37.30;;;;;;4918397;29;20454;-71
2023/06/28 11:12:00;;;;;;;3.50;2.40;;;33.20;36.60;;;;;;4922095;29;20477;-77
2023/06/28 11:14:31;;;;;;;6.03;2.60;;;34.40;35.50;;;;;;4918651;29;20869;-78
2023/06/28 11:17:12;;;;;;;3.63;2.33;;;35.20;34.00;;;;;;4915920;29;20796;-81
2023/06/28 11:19:39;;;;;;;6.37;2.53;;;34.10;33.70;;;;;;4918705;29;20602;-67
2023/06/28 11:22:05;;;;;;;3.10;2.50;;;34.60;34.60;;;;;;4917856;29;21041;-67
2023/06/28 11:24:37;;;;;;;2.93;2.27;;;34.90;33.90;;;;;;4919748;29;20477;-66
2023/06/28 11:27:10;;;;;;;2.90;2.37;;;34.50;34.30;;;;;;4920155;29;20823;-66
2023/06/28 11:29:58;;;;;;;2.57;2.00;;;34.30;35.10;;;;;;4917641;29;20480;-67
2023/06/28 11:32:26;;;;;;;2.50;2.30;;;32.70;35.80;;;;;;4913105;29;20891;-67
2023/06/28 11:34:53;;;;;;;4.63;2.50;;;31.90;37.00;;;;;;4915708;29;20489;-67
2023/06/28 11:37:21;;;;;;;5.37;2.37;;;32.40;37.20;;;;;;4916446;29;20470;-66
2023/06/28 11:39:48;;;;;;;3.90;2.53;;;32.50;36.70;;;;;;4933271;29;20486;-81
2023/06/28 11:42:13;;;;;;;2.93;2.70;;;32.90;36.80;;;;;;4929256;29;20470;-80
2023/06/28 11:44:50;;;;;;;3.97;2.37;;;32.10;36.60;;;;;;4922156;29;20512;-79
2023/06/28 11:47:20;;;;;;;6.13;2.47;;;31.30;37.70;;;;;;4918508;29;20726;-71
2023/06/28 11:49:46;;;;;;;2.43;2.23;;;30.50;39.10;;;;;;4914102;29;20438;-66
2023/06/28 11:52:15;;;;;;;4.03;2.30;;;30.30;39.70;;;;;;4916025;29;20923;-69
2023/06/28 11:54:42;;;;;;;3.00;2.47;;;30.30;40.00;;;;;;4919415;29;20461;-66
2023/06/28 11:57:08;;;;;;;4.10;2.30;;;30.00;39.90;;;;;;4918448;29;20489;-68
2023/06/28 11:59:34;;;;;;;4.20;3.27;;;30.00;40.30;;;;;;4917593;29;20449;-69
2023/06/28 12:02:03;;;;;;;3.53;2.40;;;29.90;40.50;;;;;;4917620;29;20469;-68
2023/06/28 12:04:30;;;;;;;5.13;2.10;;;29.40;40.90;;;;;;4917744;29;21863;-67
2023/06/28 12:06:59;;;;;;;5.67;2.80;;;28.80;41.80;;;;;;4914061;29;20478;-78
2023/06/28 12:09:27;;;;;;;2.17;1.90;;;27.90;42.60;;;;;;4920282;29;20454;-69
2023/06/28 12:11:58;;;;;;;2.43;2.23;;;27.00;44.30;;;;;;4915503;29;20465;-76
2023/06/28 12:14:28;;;;;;;3.77;2.50;;;27.00;44.80;;;;;;4915861;29;20536;-67
2023/06/28 12:16:55;;;;;;;3.33;2.60;;;27.00;45.00;;;;;;4921941;29;20453;-77
2023/06/28 12:19:29;;;;;;;2.53;2.33;;;27.20;45.60;;;;;;4918040;29;20449;-67
2023/06/28 12:21:56;;;;;;;2.43;2.13;;;27.30;44.80;;;;;;4918514;29;20473;-67
2023/06/28 12:24:25;;;;;;;2.17;2.00;;;27.50;45.10;;;;;;4919129;29;20468;-66
2023/06/28 12:26:54;;;;;;;5.67;2.50;;;27.30;45.10;;;;;;4920340;29;20449;-66
2023/06/28 12:29:23;;;;;;;3.90;2.97;;;27.20;45.60;;;;;;4914174;29;20461;-67
2023/06/28 12:31:52;;;;;;;3.97;2.20;;;27.00;46.00;;;;;;4921780;29;20473;-65
2023/06/28 12:34:24;;;;;;;3.23;2.70;;;27.00;45.90;;;;;;4921452;29;20492;-67
2023/06/28 12:36:57;;;;;;;5.70;3.20;;;26.70;46.00;;;;;;4916593;29;20468;-68
2023/06/28 12:39:24;;;;;;;8.67;2.97;;;26.30;47.00;;;;;;4920368;29;20457;-74
2023/06/28 12:42:05;;;;;;;4.83;2.67;;;26.30;47.10;;;;;;4922037;29;20479;-70
2023/06/28 12:44:52;;;;;;;2.93;2.27;;;26.40;46.50;;;;;;4916909;29;20496;-68
2023/06/28 12:47:38;;;;;;;4.37;2.10;;;26.10;46.70;;;;;;4916737;29;20484;-78